Terminal Aerodrome Forecast
Issued by NWS

Home | Current Version | Previous Version | Graphics & Text | Print | Product List | Glossary On
Versions: 1 2 3 4 5 6 7 8 9 10 11 12 13 14 15 16 17
417
FTUS43 KICT 251605 AAB
TAFCNU
TAF AMD
KCNU 251605Z 2516/2612 VRB06KT P6SM -SHRA OVC100
     FM251700 08009KT P6SM FEW015 OVC150
     FM252100 07007KT P6SM VCTS SCT035CB BKN070
     FM260100 06007KT P6SM SCT150=

USA.gov is the U.S. government's official web portal to all federal, state and local government web resources and services.